Upstream stations:
Downstream station:
SHEF ID: TALO2 Illinois River near Tahlequah, O
STATION TYPE:
Regulating: Stage = 11.00, Flow = 9049
PRECIP STAGE STAGE(2) RIV-FLOW BAT-LOAD
in ft ft cfs volt
Ccp-Rev Ccp-Rev Ccp-Rev Ccp-Rev Ccp-Rev
(US/Central)
10/13 00:00 0.00 5.13 6.63 341 12.17
10/13 01:00 0.00 5.11 6.36 333 12.17
10/13 02:00 0.00 5.14 6.49 344 12.09
10/13 03:00 0.00 5.16 6.38 352 12.09
10/13 04:00 0.00 5.15 6.48 348 12.09
10/13 05:00 0.00 5.13 6.29 341 12.09
10/13 06:00 0.00 5.10 6.41 329 12.09
10/13 07:00 0.00 5.14 6.33 344 12.09
10/13 08:00 0.00 5.15 6.48 348 12.09
10/13 09:00 0.05 5.14 6.70 344 12.09
10/13 10:00 0.80 5.18 6.59 360 12.09
10/13 11:00 0.21 5.18 6.81 360 12.25
10/13 12:00 0.38 5.23 6.73 380 12.09
10/13 13:00 0.11 5.27 7.12 396 12.09
10/13 14:00 0.48 5.31 7.24 413 12.09
10/13 15:00 0.14 5.31 7.24 413 12.17
10/13 16:00 0.07 5.36 7.31 435 12.17
10/13 17:00 0.01 5.37 7.32 439 12.09
10/13 18:00 0.18 5.36 7.63 435 12.09
10/13 19:00 0.02 5.37 7.62 439 12.01
10/13 20:00 0.07 5.32 7.69 417 12.01
10/13 21:00 0.21 5.33 7.88 421 12.01
10/13 22:00 0.16 5.35 8.28 430 12.01
10/13 23:00 0.09 5.39 8.47 448 12.01